Time;durP1;ratioP1;P1;durP2;ratioP2;P2;SDS_P1;SDS_P2;PMS_P1;PMS_P2;Temp;Humidity;BMP_temperature;BMP_pressure;BME280_temperature;BME280_humidity;BME280_pressure;Samples;Min_cycle;Max_cycle;Signal;HPM_P1;HPM_P2
2021/03/19 00:01:43;;;;;;;33.47;24.67;;;;;;;;;;4999591;28;20436;-12
2021/03/19 00:04:12;;;;;;;39.70;28.60;;;;;;;;;;5017335;28;20447;-13
2021/03/19 00:06:39;;;;;;;28.13;24.93;;;;;;;;;;5017283;28;20880;-12
2021/03/19 00:09:08;;;;;;;30.00;23.13;;;;;;;;;;5017951;28;20451;-12
2021/03/19 00:11:35;;;;;;;25.93;22.73;;;;;;;;;;5000899;28;20822;-12
2021/03/19 00:14:02;;;;;;;29.80;23.93;;;;;;;;;;5017007;28;20439;-12
2021/03/19 00:16:30;;;;;;;27.97;23.50;;;;;;;;;;5018468;28;20498;-12
2021/03/19 00:18:58;;;;;;;33.33;25.17;;;;;;;;;;5019360;28;20436;-13
2021/03/19 00:21:25;;;;;;;24.70;21.63;;;;;;;;;;5005022;28;20487;-13
2021/03/19 00:23:52;;;;;;;28.60;23.27;;;;;;;;;;5019143;28;20553;-10
2021/03/19 00:26:19;;;;;;;24.30;21.70;;;;;;;;;;5013818;28;20448;-11
2021/03/19 00:28:46;;;;;;;28.97;24.47;;;;;;;;;;5013893;28;20439;-11
2021/03/19 00:31:13;;;;;;;35.83;26.83;;;;;;;;;;5011424;28;20458;-11
2021/03/19 00:33:40;;;;;;;31.17;26.60;;;;;;;;;;5014031;28;20446;-10
2021/03/19 00:36:08;;;;;;;28.03;22.90;;;;;;;;;;5013211;28;20754;-11
2021/03/19 00:38:35;;;;;;;26.70;21.87;;;;;;;;;;5012621;28;20494;-11
2021/03/19 00:41:02;;;;;;;23.97;21.57;;;;;;;;;;5013349;28;20443;-12
2021/03/19 00:43:29;;;;;;;23.70;21.17;;;;;;;;;;5012860;28;20444;-12
2021/03/19 00:45:56;;;;;;;24.00;21.47;;;;;;;;;;5010637;28;20542;-11
2021/03/19 00:48:23;;;;;;;24.17;21.67;;;;;;;;;;5008575;28;20870;-11
2021/03/19 00:50:52;;;;;;;23.20;20.80;;;;;;;;;;5009760;28;20456;-11
2021/03/19 00:53:19;;;;;;;22.50;19.93;;;;;;;;;;5011863;28;20721;-11
2021/03/19 00:55:46;;;;;;;23.43;20.97;;;;;;;;;;5009270;28;20824;-11
2021/03/19 00:58:16;;;;;;;25.73;20.30;;;;;;;;;;5009016;28;20932;-10
2021/03/19 01:00:43;;;;;;;24.10;19.80;;;;;;;;;;5009895;28;20470;-11
2021/03/19 01:03:10;;;;;;;23.30;20.90;;;;;;;;;;5009753;28;20498;-11
2021/03/19 01:05:39;;;;;;;22.57;20.20;;;;;;;;;;5008879;28;20897;-10
2021/03/19 01:08:10;;;;;;;24.50;20.90;;;;;;;;;;5009910;28;21019;-11
2021/03/19 01:10:39;;;;;;;24.20;20.53;;;;;;;;;;4993331;28;20908;-11
2021/03/19 01:13:07;;;;;;;22.70;20.40;;;;;;;;;;5010924;28;20878;-12
2021/03/19 01:15:34;;;;;;;21.60;19.33;;;;;;;;;;5010608;28;20530;-10
2021/03/19 01:18:01;;;;;;;24.43;20.03;;;;;;;;;;5011420;28;20972;-10
2021/03/19 01:20:29;;;;;;;22.60;19.93;;;;;;;;;;5011984;28;20517;-11
2021/03/19 01:22:56;;;;;;;23.70;20.60;;;;;;;;;;5011726;28;20480;-11
2021/03/19 01:25:24;;;;;;;22.67;20.37;;;;;;;;;;5013100;28;20453;-11
2021/03/19 01:27:51;;;;;;;22.33;20.00;;;;;;;;;;5012947;28;20453;-11
2021/03/19 01:30:19;;;;;;;22.53;19.93;;;;;;;;;;5012687;28;20443;-9
2021/03/19 01:32:47;;;;;;;25.10;22.40;;;;;;;;;;4978951;28;20447;-10
2021/03/19 01:35:15;;;;;;;23.97;21.53;;;;;;;;;;4994677;28;20521;-11
2021/03/19 01:37:42;;;;;;;22.40;20.10;;;;;;;;;;5012115;28;20534;-11
2021/03/19 01:40:10;;;;;;;25.27;22.37;;;;;;;;;;5012049;28;20444;-10
2021/03/19 01:42:38;;;;;;;25.30;21.10;;;;;;;;;;5012526;28;20725;-11
2021/03/19 01:45:26;;;;;;;23.13;20.80;;;;;;;;;;5012455;28;20435;-10
2021/03/19 01:48:12;;;;;;;22.40;20.00;;;;;;;;;;5011094;28;20448;-11
2021/03/19 01:50:54;;;;;;;25.37;20.40;;;;;;;;;;5012440;28;20461;-10
2021/03/19 01:53:40;;;;;;;25.67;21.97;;;;;;;;;;4951907;28;20455;-11
2021/03/19 01:56:25;;;;;;;21.33;19.03;;;;;;;;;;5011561;28;20497;-10
2021/03/19 01:59:11;;;;;;;22.20;19.80;;;;;;;;;;5011194;28;20443;-10
2021/03/19 02:02:08;;;;;;;21.50;19.20;;;;;;;;;;5011274;28;20439;-9
2021/03/19 02:04:54;;;;;;;21.30;18.77;;;;;;;;;;4931181;29;20672;-10
2021/03/19 02:07:39;;;;;;;23.73;21.33;;;;;;;;;;4985672;28;20737;-11
2021/03/19 02:10:26;;;;;;;25.57;21.80;;;;;;;;;;5011802;28;20459;-9
2021/03/19 02:13:11;;;;;;;23.47;19.60;;;;;;;;;;5011931;28;20833;-10
2021/03/19 02:15:57;;;;;;;23.50;20.07;;;;;;;;;;5010321;28;20486;-11
2021/03/19 02:18:42;;;;;;;25.50;20.43;;;;;;;;;;5012918;28;20494;-9
2021/03/19 02:21:28;;;;;;;24.60;19.33;;;;;;;;;;5012895;28;20814;-10
2021/03/19 02:24:14;;;;;;;20.27;18.10;;;;;;;;;;5011038;28;20436;-11
2021/03/19 02:27:08;;;;;;;21.53;19.00;;;;;;;;;;4994459;28;20431;-10
2021/03/19 02:29:53;;;;;;;21.37;19.20;;;;;;;;;;4966768;28;20472;-12
2021/03/19 02:32:22;;;;;;;24.33;20.17;;;;;;;;;;4997207;28;20456;-12
2021/03/19 02:34:51;;;;;;;24.33;19.43;;;;;;;;;;4997099;28;20447;-12
2021/03/19 02:37:19;;;;;;;27.13;22.63;;;;;;;;;;5016322;28;20468;-12
2021/03/19 02:39:47;;;;;;;25.77;21.60;;;;;;;;;;5015581;28;20447;-12
2021/03/19 02:42:15;;;;;;;19.47;17.13;;;;;;;;;;5014557;28;20462;-13
2021/03/19 02:44:42;;;;;;;24.20;19.80;;;;;;;;;;5014713;28;20440;-12
2021/03/19 02:47:10;;;;;;;22.07;19.67;;;;;;;;;;5015614;28;20439;-13
2021/03/19 02:49:39;;;;;;;26.53;20.00;;;;;;;;;;4999074;28;20465;-13
2021/03/19 02:52:06;;;;;;;21.77;19.17;;;;;;;;;;4997770;28;20435;-12
2021/03/19 02:54:33;;;;;;;24.53;19.93;;;;;;;;;;5016505;28;20732;-12
2021/03/19 02:57:00;;;;;;;24.37;19.60;;;;;;;;;;4997753;28;20569;-13
2021/03/19 02:59:27;;;;;;;20.13;18.00;;;;;;;;;;5019979;28;20432;-12
2021/03/19 03:01:55;;;;;;;20.33;18.13;;;;;;;;;;5019301;28;20467;-13
2021/03/19 03:04:23;;;;;;;23.50;20.70;;;;;;;;;;5017111;28;20554;-13
2021/03/19 03:06:52;;;;;;;20.97;18.63;;;;;;;;;;5012738;28;20450;-12
2021/03/19 03:09:21;;;;;;;23.70;19.27;;;;;;;;;;4997812;28;20451;-12
2021/03/19 03:11:48;;;;;;;23.33;19.70;;;;;;;;;;4996984;28;20479;-12
2021/03/19 03:14:18;;;;;;;22.57;19.50;;;;;;;;;;4995954;28;20447;-12
2021/03/19 03:16:48;;;;;;;25.20;20.30;;;;;;;;;;4997079;28;20908;-12
2021/03/19 03:19:18;;;;;;;27.10;20.40;;;;;;;;;;4997528;28;21199;-12
2021/03/19 03:21:45;;;;;;;21.00;18.70;;;;;;;;;;5015031;28;20976;-13
2021/03/19 03:24:15;;;;;;;22.73;19.70;;;;;;;;;;4999044;28;20443;-13
2021/03/19 03:26:43;;;;;;;23.10;20.40;;;;;;;;;;5014600;28;21095;-13
2021/03/19 03:29:11;;;;;;;21.53;18.87;;;;;;;;;;4981474;28;20450;-12
2021/03/19 03:31:38;;;;;;;23.80;20.80;;;;;;;;;;5015893;28;20451;-12
2021/03/19 03:34:05;;;;;;;22.23;18.97;;;;;;;;;;4998002;28;20449;-12
2021/03/19 03:36:33;;;;;;;23.83;20.13;;;;;;;;;;5014469;28;20459;-13
2021/03/19 03:39:01;;;;;;;20.80;17.83;;;;;;;;;;5018421;28;20447;-12
2021/03/19 03:41:29;;;;;;;24.33;21.70;;;;;;;;;;5017896;28;20542;-13
2021/03/19 03:43:55;;;;;;;22.50;19.37;;;;;;;;;;5017148;28;20431;-12
2021/03/19 03:46:26;;;;;;;27.67;20.37;;;;;;;;;;5000576;28;20724;-12
2021/03/19 03:48:54;;;;;;;22.70;20.17;;;;;;;;;;5000768;28;20938;-13
2021/03/19 03:51:22;;;;;;;20.67;18.57;;;;;;;;;;5017132;28;20439;-12
2021/03/19 03:53:49;;;;;;;22.87;19.90;;;;;;;;;;5019075;28;20444;-13
2021/03/19 03:56:16;;;;;;;22.10;19.20;;;;;;;;;;5001462;28;20863;-13
2021/03/19 03:58:44;;;;;;;24.87;21.90;;;;;;;;;;5003592;28;20542;-13
2021/03/19 04:01:12;;;;;;;21.90;19.50;;;;;;;;;;5003461;28;20908;-13
2021/03/19 04:03:41;;;;;;;22.50;19.70;;;;;;;;;;5003814;28;20504;-13
2021/03/19 04:06:09;;;;;;;23.17;20.43;;;;;;;;;;4986054;28;20459;-13
2021/03/19 04:08:37;;;;;;;24.67;20.93;;;;;;;;;;5003248;28;20448;-13
2021/03/19 04:11:07;;;;;;;21.47;19.13;;;;;;;;;;5020525;28;20861;-13
2021/03/19 04:13:35;;;;;;;24.07;20.53;;;;;;;;;;5003664;28;20817;-13
2021/03/19 04:16:03;;;;;;;23.00;20.57;;;;;;;;;;5020795;28;20436;-13
2021/03/19 04:18:33;;;;;;;27.83;23.10;;;;;;;;;;5023267;28;20455;-13
2021/03/19 04:21:07;;;;;;;26.23;20.63;;;;;;;;;;5004945;28;20479;-13
2021/03/19 04:23:39;;;;;;;24.07;21.47;;;;;;;;;;4986741;28;20447;-13
2021/03/19 04:26:08;;;;;;;23.30;19.63;;;;;;;;;;5004453;28;20501;-12
2021/03/19 04:28:37;;;;;;;23.07;20.10;;;;;;;;;;5003504;28;20699;-13
2021/03/19 04:31:06;;;;;;;28.20;21.00;;;;;;;;;;5001589;28;20498;-11
2021/03/19 04:33:33;;;;;;;25.13;20.30;;;;;;;;;;5003475;28;20475;-11
2021/03/19 04:36:07;;;;;;;24.57;21.60;;;;;;;;;;5002812;28;20940;-13
2021/03/19 04:38:35;;;;;;;22.97;19.67;;;;;;;;;;5002363;28;20485;-12
2021/03/19 04:41:03;;;;;;;24.90;21.47;;;;;;;;;;5002553;28;20447;-12
2021/03/19 04:43:30;;;;;;;22.67;20.37;;;;;;;;;;5001925;28;20455;-12
2021/03/19 04:45:57;;;;;;;26.17;21.57;;;;;;;;;;5019553;28;20771;-12
2021/03/19 04:48:25;;;;;;;23.00;20.63;;;;;;;;;;5001862;28;20722;-12
2021/03/19 04:50:52;;;;;;;24.53;20.80;;;;;;;;;;5000431;28;20501;-12
2021/03/19 04:53:19;;;;;;;25.10;21.43;;;;;;;;;;5000823;28;20451;-11
2021/03/19 04:55:47;;;;;;;25.30;21.53;;;;;;;;;;5002131;28;20770;-12
2021/03/19 04:58:15;;;;;;;24.97;21.10;;;;;;;;;;5002176;28;20528;-12
2021/03/19 05:00:42;;;;;;;28.80;22.57;;;;;;;;;;5017074;28;20450;-11
2021/03/19 05:03:09;;;;;;;22.97;20.50;;;;;;;;;;5001805;28;20874;-12
2021/03/19 05:05:37;;;;;;;24.33;21.77;;;;;;;;;;5001267;28;20459;-12
2021/03/19 05:08:05;;;;;;;24.30;21.67;;;;;;;;;;5019583;28;20446;-13
2021/03/19 05:10:33;;;;;;;24.00;21.50;;;;;;;;;;5020098;28;20474;-13
2021/03/19 05:13:01;;;;;;;26.33;23.50;;;;;;;;;;5002113;28;20479;-13
2021/03/19 05:15:29;;;;;;;24.47;21.40;;;;;;;;;;5018634;28;20452;-12
2021/03/19 05:17:56;;;;;;;28.77;22.37;;;;;;;;;;5000974;28;20603;-13
2021/03/19 05:20:23;;;;;;;27.30;22.43;;;;;;;;;;4999908;28;20462;-12
2021/03/19 05:22:52;;;;;;;23.40;20.60;;;;;;;;;;5016449;28;20479;-12
2021/03/19 05:25:21;;;;;;;26.43;21.30;;;;;;;;;;5016197;28;20435;-12
2021/03/19 05:27:50;;;;;;;27.50;22.07;;;;;;;;;;4999503;28;20439;-12
2021/03/19 05:30:18;;;;;;;28.50;23.50;;;;;;;;;;5001699;28;20436;-12
2021/03/19 05:32:45;;;;;;;24.83;21.60;;;;;;;;;;5000202;28;20475;-12
2021/03/19 05:35:15;;;;;;;27.73;24.87;;;;;;;;;;5000691;28;20459;-12
2021/03/19 05:37:45;;;;;;;28.60;23.90;;;;;;;;;;5015860;28;20475;-12
2021/03/19 05:40:21;;;;;;;25.90;22.60;;;;;;;;;;5016685;28;20443;-13
2021/03/19 05:42:48;;;;;;;25.20;22.60;;;;;;;;;;4980389;28;20509;-12
2021/03/19 05:45:21;;;;;;;25.83;23.07;;;;;;;;;;4979785;28;20455;-13
2021/03/19 05:47:48;;;;;;;27.80;22.50;;;;;;;;;;4996976;28;20622;-12
2021/03/19 05:50:23;;;;;;;29.93;24.60;;;;;;;;;;5014061;28;20447;-12
2021/03/19 05:52:53;;;;;;;29.10;23.87;;;;;;;;;;5014509;28;20638;-12
2021/03/19 05:55:25;;;;;;;30.97;24.00;;;;;;;;;;5013952;28;20538;-13
2021/03/19 05:58:03;;;;;;;28.00;22.50;;;;;;;;;;4998026;28;20464;-13
2021/03/19 06:00:30;;;;;;;26.43;23.67;;;;;;;;;;4996556;28;20446;-12
2021/03/19 06:02:57;;;;;;;27.33;23.97;;;;;;;;;;5011550;28;20566;-12
2021/03/19 06:05:28;;;;;;;27.47;22.67;;;;;;;;;;5010556;28;20451;-12
2021/03/19 06:07:56;;;;;;;28.43;24.37;;;;;;;;;;4993694;28;20435;-13
2021/03/19 06:10:26;;;;;;;27.93;23.97;;;;;;;;;;4990690;28;20455;-12
2021/03/19 06:12:56;;;;;;;30.47;25.30;;;;;;;;;;5010444;28;20535;-12
2021/03/19 06:15:25;;;;;;;28.87;24.90;;;;;;;;;;4991727;28;20905;-12
2021/03/19 06:17:52;;;;;;;34.00;26.00;;;;;;;;;;5009248;28;20482;-12
2021/03/19 06:20:20;;;;;;;31.67;26.87;;;;;;;;;;5009411;28;20454;-13
2021/03/19 06:22:49;;;;;;;28.50;25.47;;;;;;;;;;5005133;28;20565;-13
2021/03/19 06:25:18;;;;;;;29.17;25.27;;;;;;;;;;5003681;28;20711;-12
2021/03/19 06:27:52;;;;;;;28.77;24.93;;;;;;;;;;5004726;28;20442;-12
2021/03/19 06:30:25;;;;;;;29.13;25.47;;;;;;;;;;5003667;28;20451;-12
2021/03/19 06:33:03;;;;;;;28.03;24.07;;;;;;;;;;5004099;28;20509;-13
2021/03/19 06:35:33;;;;;;;30.63;25.97;;;;;;;;;;5002864;28;20843;-13
2021/03/19 06:38:19;;;;;;;28.43;25.07;;;;;;;;;;5004715;28;20474;-12
2021/03/19 06:40:47;;;;;;;33.13;23.70;;;;;;;;;;5004768;28;20854;-12
2021/03/19 06:43:18;;;;;;;28.43;24.93;;;;;;;;;;4988168;28;21046;-14
2021/03/19 06:45:45;;;;;;;27.10;23.73;;;;;;;;;;5002530;28;20439;-13
2021/03/19 06:48:31;;;;;;;29.70;23.83;;;;;;;;;;4998092;28;20550;-13
2021/03/19 06:51:01;;;;;;;26.97;24.07;;;;;;;;;;5005231;28;21071;-13
2021/03/19 06:53:30;;;;;;;27.07;24.03;;;;;;;;;;5001777;28;20490;-13
2021/03/19 06:56:12;;;;;;;36.67;31.90;;;;;;;;;;5000132;28;20447;-14
2021/03/19 06:58:45;;;;;;;48.60;41.73;;;;;;;;;;5000465;28;20467;-12
2021/03/19 07:01:15;;;;;;;40.03;32.87;;;;;;;;;;5000497;28;20435;-13
2021/03/19 07:03:53;;;;;;;37.80;31.50;;;;;;;;;;4996591;28;20743;-12
2021/03/19 07:06:44;;;;;;;28.67;25.40;;;;;;;;;;4993989;28;20463;-12
2021/03/19 07:09:15;;;;;;;32.73;28.33;;;;;;;;;;5000927;28;20457;-16
2021/03/19 07:11:56;;;;;;;33.37;25.93;;;;;;;;;;4998743;28;20527;-15
2021/03/19 07:14:39;;;;;;;32.13;27.13;;;;;;;;;;4981501;28;20462;-14
2021/03/19 07:17:17;;;;;;;30.20;26.20;;;;;;;;;;4987711;28;20940;-12
2021/03/19 07:19:51;;;;;;;30.27;26.07;;;;;;;;;;4998956;28;20750;-13
2021/03/19 07:22:32;;;;;;;35.03;27.87;;;;;;;;;;5001457;28;20492;-13
2021/03/19 07:25:09;;;;;;;35.10;30.63;;;;;;;;;;5001995;28;20572;-13
2021/03/19 07:27:54;;;;;;;30.60;26.97;;;;;;;;;;5002743;28;20834;-12
2021/03/19 07:30:24;;;;;;;30.33;27.03;;;;;;;;;;4993076;28;20885;-12
2021/03/19 07:33:10;;;;;;;28.07;24.63;;;;;;;;;;4999093;28;20466;-13
2021/03/19 07:35:49;;;;;;;28.00;24.40;;;;;;;;;;4999207;28;20538;-12
2021/03/19 07:38:37;;;;;;;29.77;26.70;;;;;;;;;;4997734;28;20482;-12
2021/03/19 07:41:08;;;;;;;26.33;23.57;;;;;;;;;;5002325;28;20490;-12
2021/03/19 07:43:45;;;;;;;25.97;23.20;;;;;;;;;;4999295;28;20459;-12
2021/03/19 07:46:21;;;;;;;28.80;24.10;;;;;;;;;;4993738;28;20512;-12
2021/03/19 07:49:27;;;;;;;29.83;25.70;;;;;;;;;;4980576;28;20466;-12
2021/03/19 07:51:59;;;;;;;29.13;26.23;;;;;;;;;;4974891;28;20734;-11
2021/03/19 07:54:29;;;;;;;26.90;23.90;;;;;;;;;;4979880;28;20631;-10
2021/03/19 07:57:02;;;;;;;26.83;23.50;;;;;;;;;;4978168;28;21090;-11
2021/03/19 07:59:37;;;;;;;28.60;25.50;;;;;;;;;;4973987;28;20452;-12
2021/03/19 08:02:18;;;;;;;26.63;23.80;;;;;;;;;;4974652;28;20447;-12
2021/03/19 08:05:02;;;;;;;;;;;;;;;;;;;;;
2021/03/19 08:07:40;;;;;;;32.07;28.80;;;;;;;;;;4978496;28;20782;-11
2021/03/19 08:10:20;;;;;;;28.23;24.67;;;;;;;;;;4972375;28;20471;-11
2021/03/19 08:12:49;;;;;;;34.90;31.67;;;;;;;;;;4972489;28;20651;-12
2021/03/19 08:15:24;;;;;;;24.03;21.70;;;;;;;;;;4975968;28;20848;-12
2021/03/19 08:17:55;;;;;;;22.03;19.83;;;;;;;;;;4979422;28;21002;-11
2021/03/19 08:20:52;;;;;;;22.97;20.63;;;;;;;;;;4974267;28;20781;-12
2021/03/19 08:23:25;;;;;;;20.70;18.60;;;;;;;;;;4892334;29;20668;-11
2021/03/19 08:25:53;;;;;;;20.73;18.73;;;;;;;;;;4951078;28;20455;-10
2021/03/19 08:28:25;;;;;;;20.27;18.30;;;;;;;;;;4969538;28;20806;-12
2021/03/19 08:30:55;;;;;;;21.70;19.23;;;;;;;;;;4972318;28;20456;-12
2021/03/19 08:33:30;;;;;;;17.13;15.43;;;;;;;;;;4972210;28;20659;-11
2021/03/19 08:36:00;;;;;;;19.57;17.00;;;;;;;;;;4973834;28;20454;-10
2021/03/19 08:38:31;;;;;;;24.27;17.77;;;;;;;;;;4972073;28;20674;-10
2021/03/19 08:41:00;;;;;;;23.27;20.77;;;;;;;;;;4968471;28;20577;-12
2021/03/19 08:43:30;;;;;;;21.37;18.80;;;;;;;;;;4974282;28;20692;-10
2021/03/19 08:46:01;;;;;;;23.07;19.43;;;;;;;;;;4976449;28;20752;-12
2021/03/19 08:48:29;;;;;;;23.60;20.70;;;;;;;;;;4971895;28;20893;-10
2021/03/19 08:51:12;;;;;;;22.97;20.60;;;;;;;;;;4970485;28;20459;-10
2021/03/19 08:53:54;;;;;;;24.07;21.53;;;;;;;;;;4955827;28;20971;-11
2021/03/19 08:56:30;;;;;;;20.67;18.67;;;;;;;;;;4974072;28;20637;-10
2021/03/19 08:58:57;;;;;;;22.80;20.43;;;;;;;;;;4979352;28;20560;-11
2021/03/19 09:01:46;;;;;;;24.47;21.87;;;;;;;;;;4978492;28;20439;-12
2021/03/19 09:04:14;;;;;;;22.60;20.27;;;;;;;;;;4975434;28;20466;-12
2021/03/19 09:07:03;;;;;;;23.47;21.27;;;;;;;;;;4980456;28;20447;-11
2021/03/19 09:09:35;;;;;;;22.33;20.03;;;;;;;;;;4974664;28;20459;-12
2021/03/19 09:12:05;;;;;;;22.37;20.07;;;;;;;;;;4975497;28;20440;-12
2021/03/19 09:14:36;;;;;;;22.90;20.50;;;;;;;;;;4981332;28;20506;-12
2021/03/19 09:17:03;;;;;;;27.03;21.30;;;;;;;;;;4976387;28;20450;-11
2021/03/19 09:19:54;;;;;;;23.00;20.77;;;;;;;;;;4972797;28;20533;-12
2021/03/19 09:22:53;;;;;;;22.67;20.13;;;;;;;;;;4967749;28;20706;-15
2021/03/19 09:25:23;;;;;;;23.00;20.70;;;;;;;;;;4975015;28;20525;-11
2021/03/19 09:28:06;;;;;;;23.20;20.70;;;;;;;;;;4971783;28;20658;-12
2021/03/19 09:30:37;;;;;;;24.70;22.10;;;;;;;;;;4971418;28;20467;-13
2021/03/19 09:33:05;;;;;;;29.63;22.90;;;;;;;;;;4954603;28;20711;-12
2021/03/19 09:35:37;;;;;;;26.70;23.80;;;;;;;;;;4973445;28;20686;-11
2021/03/19 09:38:05;;;;;;;27.37;22.23;;;;;;;;;;4955824;28;20741;-11
2021/03/19 09:40:43;;;;;;;25.33;22.87;;;;;;;;;;4952391;28;21231;-12
2021/03/19 09:43:12;;;;;;;24.60;21.03;;;;;;;;;;4970159;28;21249;-11
2021/03/19 09:45:46;;;;;;;26.97;23.70;;;;;;;;;;4974514;28;20751;-10
2021/03/19 09:48:28;;;;;;;24.03;21.63;;;;;;;;;;4974375;28;20450;-10
2021/03/19 09:51:10;;;;;;;23.10;20.70;;;;;;;;;;4980025;28;20470;-14
2021/03/19 09:53:39;;;;;;;25.80;23.23;;;;;;;;;;4978879;28;20463;-11
2021/03/19 09:56:16;;;;;;;28.27;25.17;;;;;;;;;;4974006;28;20439;-10
2021/03/19 09:58:45;;;;;;;26.40;23.37;;;;;;;;;;4965668;28;20566;-12
2021/03/19 10:01:22;;;;;;;26.77;23.97;;;;;;;;;;4970266;28;20923;-11
2021/03/19 10:03:51;;;;;;;24.97;22.37;;;;;;;;;;4970549;28;20941;-12
2021/03/19 10:06:19;;;;;;;23.53;21.13;;;;;;;;;;4969748;28;20682;-11
2021/03/19 10:08:46;;;;;;;25.27;22.77;;;;;;;;;;4950432;28;20517;-12
2021/03/19 10:11:18;;;;;;;23.67;21.17;;;;;;;;;;4968570;28;20498;-13
2021/03/19 10:13:47;;;;;;;23.37;21.07;;;;;;;;;;4974734;28;20487;-12
2021/03/19 10:16:22;;;;;;;22.23;20.10;;;;;;;;;;4973292;28;20797;-12
2021/03/19 10:18:49;;;;;;;21.57;19.47;;;;;;;;;;4959855;28;20812;-12
2021/03/19 10:21:20;;;;;;;20.23;18.33;;;;;;;;;;4972864;28;20760;-12
2021/03/19 10:23:48;;;;;;;19.30;17.50;;;;;;;;;;4971619;28;20679;-12
2021/03/19 10:26:22;;;;;;;18.93;17.20;;;;;;;;;;4970526;28;20680;-12
2021/03/19 10:28:51;;;;;;;19.70;17.80;;;;;;;;;;4974913;28;20466;-12
2021/03/19 10:31:20;;;;;;;20.63;18.73;;;;;;;;;;4973377;28;20454;-12
2021/03/19 10:33:51;;;;;;;20.17;18.37;;;;;;;;;;4974248;28;20488;-12
2021/03/19 10:36:19;;;;;;;21.07;19.17;;;;;;;;;;4971964;28;20717;-12
2021/03/19 10:38:50;;;;;;;20.13;18.33;;;;;;;;;;4973637;28;21253;-13
2021/03/19 10:41:22;;;;;;;20.63;18.73;;;;;;;;;;4969803;28;21126;-11
2021/03/19 10:43:53;;;;;;;19.00;17.13;;;;;;;;;;4970243;28;20495;-12
2021/03/19 10:46:23;;;;;;;20.83;18.70;;;;;;;;;;4971319;28;20787;-12
2021/03/19 10:48:51;;;;;;;18.50;16.80;;;;;;;;;;4970679;28;20555;-11
2021/03/19 10:51:27;;;;;;;15.40;14.00;;;;;;;;;;4977211;28;20454;-11
2021/03/19 10:53:57;;;;;;;17.20;15.60;;;;;;;;;;4977489;28;20829;-10
2021/03/19 10:56:25;;;;;;;13.20;12.20;;;;;;;;;;4978596;28;20668;-12
2021/03/19 10:58:54;;;;;;;19.90;17.70;;;;;;;;;;4963217;28;20563;-12
2021/03/19 11:01:30;;;;;;;15.90;14.47;;;;;;;;;;4977355;28;20451;-12
2021/03/19 11:03:57;;;;;;;15.33;13.93;;;;;;;;;;4974101;28;20787;-12
2021/03/19 11:06:33;;;;;;;16.30;14.80;;;;;;;;;;4976929;28;20734;-13
2021/03/19 11:09:11;;;;;;;15.50;14.03;;;;;;;;;;4975991;28;20877;-13
2021/03/19 11:11:38;;;;;;;14.93;13.57;;;;;;;;;;4977413;28;20538;-12
2021/03/19 11:14:08;;;;;;;15.13;13.87;;;;;;;;;;4975582;28;20545;-12
2021/03/19 11:16:36;;;;;;;14.67;13.47;;;;;;;;;;4977932;28;20835;-11
2021/03/19 11:19:05;;;;;;;15.37;14.10;;;;;;;;;;4974814;28;20471;-12
2021/03/19 11:21:37;;;;;;;14.47;13.13;;;;;;;;;;4996772;28;20522;-13
2021/03/19 11:24:25;;;;;;;13.33;12.30;;;;;;;;;;5006154;28;20507;-12
2021/03/19 11:26:55;;;;;;;11.53;10.67;;;;;;;;;;5004024;28;20713;-12
2021/03/19 11:29:25;;;;;;;10.77;10.03;;;;;;;;;;4991838;28;20441;-13
2021/03/19 11:32:00;;;;;;;11.70;10.80;;;;;;;;;;4979663;28;20596;-12
2021/03/19 11:34:29;;;;;;;11.70;10.70;;;;;;;;;;4998038;28;20473;-11
2021/03/19 11:36:59;;;;;;;11.63;10.83;;;;;;;;;;4994984;28;20439;-12
2021/03/19 11:39:40;;;;;;;12.27;11.20;;;;;;;;;;4997707;28;20492;-12
2021/03/19 11:42:08;;;;;;;12.03;11.03;;;;;;;;;;5000230;28;20483;-12
2021/03/19 11:44:37;;;;;;;12.97;11.87;;;;;;;;;;4999059;28;20438;-12
2021/03/19 11:47:09;;;;;;;11.80;10.90;;;;;;;;;;5000586;28;20442;-12
2021/03/19 11:49:36;;;;;;;11.47;10.50;;;;;;;;;;5001403;28;20671;-12
2021/03/19 11:52:03;;;;;;;11.47;10.60;;;;;;;;;;5002636;28;20516;-11
2021/03/19 11:54:31;;;;;;;11.70;10.80;;;;;;;;;;5003349;28;20441;-12
2021/03/19 11:56:58;;;;;;;10.60;9.83;;;;;;;;;;4997588;28;20859;-12
2021/03/19 11:59:25;;;;;;;9.93;9.13;;;;;;;;;;4995778;28;20490;-12
2021/03/19 12:01:53;;;;;;;8.43;7.93;;;;;;;;;;4998341;28;20792;-12
2021/03/19 12:04:22;;;;;;;9.33;8.77;;;;;;;;;;4995069;28;20689;-11
2021/03/19 12:06:51;;;;;;;9.43;8.83;;;;;;;;;;4978802;28;20815;-12
2021/03/19 12:09:19;;;;;;;9.23;8.63;;;;;;;;;;4998792;28;20669;-12
2021/03/19 12:11:47;;;;;;;10.10;9.40;;;;;;;;;;4997897;28;20849;-12
2021/03/19 12:14:18;;;;;;;10.60;9.80;;;;;;;;;;4998108;28;20869;-12
2021/03/19 12:16:45;;;;;;;11.10;10.20;;;;;;;;;;5003356;28;20667;-11
2021/03/19 12:19:29;;;;;;;11.00;10.20;;;;;;;;;;4999161;28;20481;-11
2021/03/19 12:21:56;;;;;;;10.30;9.50;;;;;;;;;;5001430;28;20481;-12
2021/03/19 12:24:23;;;;;;;10.80;9.90;;;;;;;;;;5000334;28;20782;-12
2021/03/19 12:26:50;;;;;;;12.23;11.33;;;;;;;;;;4999960;28;20439;-13
2021/03/19 12:29:17;;;;;;;12.20;11.30;;;;;;;;;;4986958;28;20977;-18
2021/03/19 12:31:44;;;;;;;11.67;10.67;;;;;;;;;;5004112;28;20760;-11
2021/03/19 12:34:11;;;;;;;13.67;12.27;;;;;;;;;;4997880;28;20678;-11
2021/03/19 12:36:39;;;;;;;12.60;11.40;;;;;;;;;;5001360;28;20443;-12
2021/03/19 12:39:06;;;;;;;13.23;11.93;;;;;;;;;;5003730;28;20463;-11
2021/03/19 12:41:35;;;;;;;13.53;12.23;;;;;;;;;;5001644;28;20638;-17
2021/03/19 12:44:02;;;;;;;13.70;12.37;;;;;;;;;;4998897;28;20454;-11
2021/03/19 12:46:29;;;;;;;12.77;11.57;;;;;;;;;;5000992;28;20446;-11
2021/03/19 12:48:56;;;;;;;14.57;13.03;;;;;;;;;;5003882;28;20655;-12
2021/03/19 12:51:23;;;;;;;13.97;11.13;;;;;;;;;;4998780;28;20820;-11
2021/03/19 12:53:52;;;;;;;14.03;12.73;;;;;;;;;;5003772;28;21153;-10
2021/03/19 12:56:19;;;;;;;12.70;11.50;;;;;;;;;;5002724;28;20439;-12
2021/03/19 12:58:46;;;;;;;14.13;12.73;;;;;;;;;;5004245;28;21151;-11
2021/03/19 13:01:14;;;;;;;13.40;12.10;;;;;;;;;;5005325;28;20596;-11
2021/03/19 13:03:41;;;;;;;12.17;11.23;;;;;;;;;;5004073;28;21218;-11
2021/03/19 13:06:08;;;;;;;14.83;13.43;;;;;;;;;;5000503;28;20941;-11
2021/03/19 13:08:35;;;;;;;14.00;12.60;;;;;;;;;;4990560;28;20473;-11
2021/03/19 13:11:03;;;;;;;15.93;14.37;;;;;;;;;;5009720;28;20553;-11
2021/03/19 13:13:30;;;;;;;14.57;13.10;;;;;;;;;;4992387;28;20557;-10
2021/03/19 13:15:57;;;;;;;16.50;14.90;;;;;;;;;;4989099;28;20741;-10
2021/03/19 13:18:24;;;;;;;15.60;13.93;;;;;;;;;;4988230;28;20785;-11
2021/03/19 13:20:51;;;;;;;16.07;14.57;;;;;;;;;;5006435;28;20816;-11
2021/03/19 13:23:18;;;;;;;15.00;13.70;;;;;;;;;;5008874;28;20682;-11
2021/03/19 13:25:46;;;;;;;16.07;14.57;;;;;;;;;;4991354;28;20777;-11
2021/03/19 13:28:16;;;;;;;17.90;15.30;;;;;;;;;;5009867;28;20845;-11
2021/03/19 13:30:43;;;;;;;16.57;14.97;;;;;;;;;;5009909;28;20470;-9
2021/03/19 13:33:11;;;;;;;16.33;14.73;;;;;;;;;;4993280;28;20458;-10
2021/03/19 13:35:39;;;;;;;15.57;14.07;;;;;;;;;;5010783;28;20786;-11
2021/03/19 13:38:10;;;;;;;18.50;16.50;;;;;;;;;;5014360;28;21007;-11
2021/03/19 13:40:37;;;;;;;16.17;14.53;;;;;;;;;;5016377;28;20482;-12
2021/03/19 13:43:04;;;;;;;17.10;15.43;;;;;;;;;;4985645;28;20512;-12
2021/03/19 13:45:32;;;;;;;20.83;16.83;;;;;;;;;;5019768;28;20734;-12
2021/03/19 13:47:59;;;;;;;16.23;14.53;;;;;;;;;;5014215;28;20645;-11
2021/03/19 13:50:27;;;;;;;16.90;15.30;;;;;;;;;;4996486;28;20458;-12
2021/03/19 13:52:54;;;;;;;17.50;15.70;;;;;;;;;;5013370;28;20456;-12
2021/03/19 13:55:22;;;;;;;16.83;15.13;;;;;;;;;;5015263;28;20918;-12
2021/03/19 13:57:50;;;;;;;16.57;14.30;;;;;;;;;;5016896;28;20446;-12
2021/03/19 14:00:18;;;;;;;16.93;15.23;;;;;;;;;;5013078;28;20443;-13
2021/03/19 14:02:46;;;;;;;14.47;13.17;;;;;;;;;;5012613;28;20840;-12
2021/03/19 14:05:14;;;;;;;16.40;14.60;;;;;;;;;;5012950;28;20571;-11
2021/03/19 14:07:41;;;;;;;16.43;14.77;;;;;;;;;;5011703;28;20442;-12
2021/03/19 14:10:08;;;;;;;15.83;14.30;;;;;;;;;;5014378;28;20525;-13
2021/03/19 14:12:35;;;;;;;16.20;14.67;;;;;;;;;;5013637;28;21000;-12
2021/03/19 14:15:03;;;;;;;17.50;15.60;;;;;;;;;;5013357;28;20468;-12
2021/03/19 14:17:30;;;;;;;16.97;15.27;;;;;;;;;;5017247;28;20912;-11
2021/03/19 14:19:59;;;;;;;17.70;15.47;;;;;;;;;;5019603;28;20489;-11
2021/03/19 14:22:26;;;;;;;16.83;15.23;;;;;;;;;;5019828;28;20474;-12
2021/03/19 14:24:53;;;;;;;16.93;15.20;;;;;;;;;;5013883;28;21057;-12
2021/03/19 14:27:23;;;;;;;21.60;18.50;;;;;;;;;;5014906;28;20619;-12
2021/03/19 14:29:50;;;;;;;16.70;15.10;;;;;;;;;;5016696;28;20445;-11
2021/03/19 14:32:18;;;;;;;15.83;14.30;;;;;;;;;;5017370;28;20589;-11
2021/03/19 14:34:47;;;;;;;16.53;14.93;;;;;;;;;;4998146;28;20457;-11
2021/03/19 14:37:15;;;;;;;16.17;14.57;;;;;;;;;;5016474;28;20442;-12
2021/03/19 14:39:42;;;;;;;15.63;14.17;;;;;;;;;;5012232;28;20469;-12
2021/03/19 14:42:09;;;;;;;14.80;13.50;;;;;;;;;;5012838;28;20865;-12